Time;durP1;ratioP1;P1;durP2;ratioP2;P2;SDS_P1;SDS_P2;PMS_P1;PMS_P2;Temp;Humidity;BMP_temperature;BMP_pressure;BME280_temperature;BME280_humidity;BME280_pressure;Samples;Min_cycle;Max_cycle;Signal;HPM_P1;HPM_P2
2023/05/20 00:00:54;;;;;;;3.22;2.50;;;14.50;61.70;;;;;;5009022;28;20433;-69
2023/05/20 00:03:21;;;;;;;3.10;2.20;;;14.50;62.20;;;;;;5008919;28;21025;-69
2023/05/20 00:05:48;;;;;;;3.27;2.30;;;14.40;61.70;;;;;;5002559;28;20463;-69
2023/05/20 00:08:15;;;;;;;2.30;2.00;;;14.40;62.00;;;;;;5007021;28;20436;-69
2023/05/20 00:10:42;;;;;;;3.20;2.00;;;14.40;61.80;;;;;;5016221;28;20439;-69
2023/05/20 00:13:08;;;;;;;3.35;2.17;;;14.40;62.00;;;;;;5012853;28;20439;-69
2023/05/20 00:15:35;;;;;;;3.80;2.20;;;14.40;62.00;;;;;;5013704;28;20942;-69
2023/05/20 00:18:04;;;;;;;3.50;2.20;;;14.40;61.80;;;;;;5022557;28;20427;-68
2023/05/20 00:20:32;;;;;;;3.75;2.70;;;14.40;61.90;;;;;;5008597;28;20430;-69
2023/05/20 00:22:58;;;;;;;3.72;2.30;;;14.30;61.90;;;;;;5013653;28;20426;-67
2023/05/20 00:25:25;;;;;;;2.60;2.35;;;14.30;61.70;;;;;;5017372;28;20441;-69
2023/05/20 00:27:52;;;;;;;2.80;2.10;;;14.30;62.00;;;;;;5014451;28;20462;-69
2023/05/20 00:30:19;;;;;;;2.38;2.00;;;14.30;61.40;;;;;;5021145;28;20439;-69
2023/05/20 00:32:45;;;;;;;2.67;2.22;;;14.30;61.40;;;;;;5019724;28;20437;-69
2023/05/20 00:35:13;;;;;;;5.55;3.80;;;14.20;62.00;;;;;;5022076;28;20445;-69
2023/05/20 00:37:40;;;;;;;5.20;4.13;;;14.20;62.20;;;;;;5023031;28;20507;-69
2023/05/20 00:40:08;;;;;;;4.50;2.50;;;14.20;62.20;;;;;;5018920;28;20421;-68
2023/05/20 00:42:34;;;;;;;3.35;2.60;;;14.20;62.30;;;;;;5026153;28;20418;-69
2023/05/20 00:45:01;;;;;;;2.50;2.30;;;14.10;62.50;;;;;;5021485;28;20455;-69
2023/05/20 00:47:31;;;;;;;3.45;2.20;;;14.20;63.20;;;;;;5024763;28;20423;-69
2023/05/20 00:49:58;;;;;;;2.85;2.20;;;14.10;62.30;;;;;;5024476;28;20466;-70
2023/05/20 00:52:29;;;;;;;3.50;2.10;;;14.10;62.20;;;;;;5021828;28;20438;-68
2023/05/20 00:54:57;;;;;;;4.90;2.63;;;14.00;62.50;;;;;;5021681;28;20503;-69
2023/05/20 00:57:23;;;;;;;2.35;2.00;;;14.00;62.80;;;;;;5025866;28;20411;-69
2023/05/20 00:59:50;;;;;;;2.10;1.80;;;14.00;63.10;;;;;;5021665;28;20432;-69
2023/05/20 01:02:17;;;;;;;3.50;1.95;;;14.00;63.70;;;;;;5020756;28;20447;-69
2023/05/20 01:04:46;;;;;;;3.20;2.00;;;14.00;64.50;;;;;;5018195;28;20547;-69
2023/05/20 01:07:13;;;;;;;3.03;1.65;;;13.90;64.40;;;;;;5014726;28;20431;-69
2023/05/20 01:09:42;;;;;;;3.37;1.90;;;13.90;64.60;;;;;;5024537;28;20441;-69
2023/05/20 01:12:13;;;;;;;3.75;2.00;;;13.80;64.60;;;;;;5021160;28;20427;-69
2023/05/20 01:14:48;;;;;;;2.25;2.05;;;13.80;64.80;;;;;;5014448;28;20431;-70
2023/05/20 01:17:16;;;;;;;2.60;1.90;;;13.80;64.30;;;;;;5012748;28;20441;-69
2023/05/20 01:19:44;;;;;;;2.00;1.80;;;13.70;64.00;;;;;;4999187;28;20464;-69
2023/05/20 01:22:12;;;;;;;4.10;1.80;;;13.70;64.90;;;;;;5009963;28;20445;-69
2023/05/20 01:24:41;;;;;;;2.42;1.70;;;13.70;64.50;;;;;;5019988;28;20439;-69
2023/05/20 01:27:09;;;;;;;2.75;2.10;;;13.60;64.60;;;;;;5014221;28;20428;-69
2023/05/20 01:29:37;;;;;;;2.85;1.75;;;13.60;65.60;;;;;;5005352;28;20455;-69
2023/05/20 01:32:07;;;;;;;3.00;1.90;;;13.50;64.90;;;;;;5005926;28;20876;-70
2023/05/20 01:34:36;;;;;;;2.00;1.80;;;13.50;64.50;;;;;;5007367;28;20440;-68
2023/05/20 01:37:05;;;;;;;2.45;1.90;;;13.50;65.10;;;;;;5006360;28;20442;-70
2023/05/20 01:39:35;;;;;;;2.50;2.00;;;13.50;65.10;;;;;;5005322;28;20933;-69
2023/05/20 01:42:05;;;;;;;2.30;1.70;;;13.50;65.80;;;;;;5016545;28;20426;-69
2023/05/20 01:44:31;;;;;;;3.35;1.92;;;13.40;66.10;;;;;;5008431;28;20432;-69
2023/05/20 01:47:00;;;;;;;2.47;1.70;;;13.40;65.80;;;;;;5013249;28;20444;-68
2023/05/20 01:49:26;;;;;;;2.83;2.10;;;13.40;65.70;;;;;;5004145;28;20467;-69
2023/05/20 01:51:53;;;;;;;4.45;2.10;;;13.40;66.30;;;;;;5005321;28;20448;-69
2023/05/20 01:54:20;;;;;;;2.33;1.70;;;13.40;66.00;;;;;;5001437;28;20712;-69
2023/05/20 01:56:47;;;;;;;4.50;1.98;;;13.40;67.20;;;;;;5002691;28;20845;-69
2023/05/20 01:59:15;;;;;;;6.55;2.30;;;13.30;67.10;;;;;;5001148;28;20418;-69
2023/05/20 02:01:42;;;;;;;2.20;1.80;;;13.30;65.90;;;;;;4996501;28;20455;-69
2023/05/20 02:04:09;;;;;;;3.30;1.90;;;13.20;66.90;;;;;;5003138;28;20982;-69
2023/05/20 02:06:35;;;;;;;3.25;2.20;;;13.20;67.50;;;;;;5018842;28;20418;-69
2023/05/20 02:09:03;;;;;;;2.53;1.77;;;13.20;67.30;;;;;;5003876;28;20452;-70
2023/05/20 02:11:29;;;;;;;3.37;2.10;;;13.20;67.80;;;;;;5007723;28;20796;-69
2023/05/20 02:13:56;;;;;;;3.50;1.80;;;13.20;67.80;;;;;;5011869;28;20451;-69
2023/05/20 02:16:24;;;;;;;2.20;1.90;;;13.20;68.00;;;;;;5015304;28;20439;-69
2023/05/20 02:18:51;;;;;;;2.95;2.10;;;13.20;68.30;;;;;;5004364;28;20420;-69
2023/05/20 02:21:18;;;;;;;2.10;1.90;;;13.20;67.70;;;;;;5013361;28;20431;-69
2023/05/20 02:23:45;;;;;;;2.20;2.00;;;13.20;67.80;;;;;;5016562;28;20741;-68
2023/05/20 02:26:12;;;;;;;2.17;1.75;;;13.20;68.10;;;;;;5005118;28;20813;-69
2023/05/20 02:28:42;;;;;;;2.80;1.92;;;13.10;67.50;;;;;;5007853;28;20463;-70
2023/05/20 02:31:09;;;;;;;2.17;1.98;;;13.00;67.50;;;;;;5010920;28;20522;-68
2023/05/20 02:33:37;;;;;;;2.90;2.10;;;13.00;67.20;;;;;;5015281;28;20452;-69
2023/05/20 02:36:04;;;;;;;2.10;1.90;;;12.90;67.80;;;;;;5009007;28;20435;-70
2023/05/20 02:38:31;;;;;;;2.65;2.45;;;12.90;68.20;;;;;;5011047;28;20543;-69
2023/05/20 02:40:58;;;;;;;3.00;2.35;;;12.90;68.20;;;;;;5005901;28;20502;-69
2023/05/20 02:43:25;;;;;;;2.65;2.30;;;12.90;68.00;;;;;;5007215;28;20523;-69
2023/05/20 02:45:52;;;;;;;2.50;2.28;;;12.80;68.50;;;;;;5014806;28;20426;-69
2023/05/20 02:48:18;;;;;;;3.50;2.33;;;12.90;67.80;;;;;;5003424;28;20875;-69
2023/05/20 02:50:47;;;;;;;2.90;2.60;;;12.80;68.20;;;;;;5010217;28;20578;-69
2023/05/20 02:53:13;;;;;;;2.90;2.40;;;12.80;68.50;;;;;;5011202;28;20420;-68
2023/05/20 02:55:40;;;;;;;3.63;2.50;;;12.80;69.30;;;;;;4998407;28;20444;-69
2023/05/20 02:58:07;;;;;;;2.90;2.40;;;12.80;69.40;;;;;;5005654;28;20438;-69
2023/05/20 03:00:39;;;;;;;3.38;2.90;;;12.80;70.10;;;;;;5013441;28;20905;-69
2023/05/20 03:03:06;;;;;;;3.00;2.55;;;12.70;70.40;;;;;;5011677;28;20439;-68
2023/05/20 03:05:36;;;;;;;2.72;2.40;;;12.70;71.00;;;;;;5009311;28;20833;-70
2023/05/20 03:08:08;;;;;;;3.65;2.38;;;12.70;70.90;;;;;;5014675;28;20430;-69
2023/05/20 03:13:10;;;;;;;2.90;2.53;;;12.60;71.40;;;;;;5020186;28;20694;-75
2023/05/20 03:15:37;;;;;;;2.60;2.40;;;12.50;72.00;;;;;;5024836;28;20454;-75
2023/05/20 03:18:05;;;;;;;3.30;3.10;;;12.50;72.60;;;;;;5022363;28;21172;-76
2023/05/20 03:20:32;;;;;;;4.30;3.50;;;12.50;72.50;;;;;;5022218;28;20761;-75
2023/05/20 03:22:59;;;;;;;4.03;3.00;;;12.50;73.00;;;;;;5008577;28;20429;-75
2023/05/20 03:25:27;;;;;;;3.38;2.80;;;12.40;72.50;;;;;;5008109;28;20452;-76
2023/05/20 03:27:54;;;;;;;2.92;2.72;;;12.40;73.00;;;;;;5004988;28;20437;-75
2023/05/20 03:30:22;;;;;;;2.67;2.47;;;12.30;73.10;;;;;;5004665;28;20502;-76
2023/05/20 03:32:48;;;;;;;3.45;2.70;;;12.30;73.60;;;;;;5008422;28;20927;-76
2023/05/20 03:35:16;;;;;;;2.83;2.58;;;12.30;72.90;;;;;;4997314;28;20445;-77
2023/05/20 03:37:42;;;;;;;3.40;2.80;;;12.30;73.50;;;;;;4999484;28;20438;-75
2023/05/20 03:40:10;;;;;;;3.10;2.80;;;12.30;73.40;;;;;;5008269;28;20428;-75
2023/05/20 03:42:38;;;;;;;3.80;2.80;;;12.30;74.20;;;;;;5006895;28;20820;-75
2023/05/20 03:45:06;;;;;;;3.30;3.00;;;12.30;74.10;;;;;;5008295;28;20420;-76
2023/05/20 03:47:33;;;;;;;4.90;3.60;;;12.20;73.70;;;;;;5007508;28;20436;-75
2023/05/20 03:50:00;;;;;;;4.20;3.00;;;12.20;74.70;;;;;;5008311;28;20420;-75
2023/05/20 03:52:26;;;;;;;3.30;2.72;;;12.20;75.10;;;;;;5006909;28;20494;-75
2023/05/20 03:54:54;;;;;;;3.60;3.10;;;12.20;74.70;;;;;;5000655;28;20431;-75
2023/05/20 03:57:21;;;;;;;3.47;3.00;;;12.30;74.60;;;;;;5006740;28;20530;-76
2023/05/20 03:59:50;;;;;;;3.22;2.92;;;12.20;75.30;;;;;;5005475;28;20440;-76
2023/05/20 04:02:16;;;;;;;3.40;2.80;;;12.20;75.50;;;;;;5003611;28;20820;-76
2023/05/20 04:04:43;;;;;;;3.45;2.72;;;12.20;75.40;;;;;;5001846;28;20911;-77
2023/05/20 04:07:10;;;;;;;3.20;2.60;;;12.20;75.90;;;;;;5007644;28;20436;-75
2023/05/20 04:09:38;;;;;;;3.90;2.70;;;12.30;77.00;;;;;;5004175;28;20440;-76
2023/05/20 04:12:05;;;;;;;3.80;2.95;;;12.30;76.10;;;;;;5008527;28;20428;-74
2023/05/20 04:14:33;;;;;;;8.00;5.10;;;12.30;76.60;;;;;;5009839;28;20436;-74
2023/05/20 04:17:02;;;;;;;4.10;3.00;;;12.30;75.90;;;;;;5007899;28;20440;-75
2023/05/20 04:19:29;;;;;;;5.43;3.10;;;12.30;76.20;;;;;;5011812;28;20492;-76
2023/05/20 04:21:56;;;;;;;3.38;3.08;;;12.30;76.40;;;;;;5008303;28;20453;-75
2023/05/20 04:24:24;;;;;;;3.60;2.97;;;12.30;75.90;;;;;;5010639;28;20800;-75
2023/05/20 04:26:51;;;;;;;3.55;2.80;;;12.40;77.10;;;;;;5011438;28;20490;-74
2023/05/20 04:29:18;;;;;;;4.20;3.20;;;12.40;75.90;;;;;;5011048;28;20444;-74
2023/05/20 04:31:45;;;;;;;3.00;2.70;;;12.40;76.90;;;;;;5011591;28;21111;-74
2023/05/20 04:34:14;;;;;;;3.38;3.03;;;12.50;77.30;;;;;;5012630;28;20429;-75
2023/05/20 04:36:40;;;;;;;3.40;3.10;;;12.50;76.50;;;;;;5010110;28;20433;-75
2023/05/20 04:39:07;;;;;;;3.47;3.17;;;12.60;77.00;;;;;;5011750;28;21054;-76
2023/05/20 04:41:35;;;;;;;3.60;3.30;;;12.60;76.70;;;;;;5012029;28;20424;-75
2023/05/20 04:44:02;;;;;;;3.50;3.20;;;12.60;76.90;;;;;;5010303;28;20447;-75
2023/05/20 04:46:30;;;;;;;3.70;3.20;;;12.60;76.90;;;;;;5009759;28;20436;-74
2023/05/20 04:48:57;;;;;;;3.20;2.90;;;12.70;76.80;;;;;;5010436;28;20448;-73
2023/05/20 04:51:25;;;;;;;5.85;3.50;;;12.70;76.40;;;;;;5011292;28;21022;-74
2023/05/20 04:53:52;;;;;;;3.53;3.22;;;12.70;76.90;;;;;;5012066;28;20420;-74
2023/05/20 04:56:18;;;;;;;4.32;3.10;;;12.70;76.70;;;;;;5008795;28;20440;-75
2023/05/20 04:58:45;;;;;;;3.35;3.05;;;12.70;77.60;;;;;;5008904;28;20440;-73
2023/05/20 05:01:12;;;;;;;3.60;3.30;;;12.80;76.90;;;;;;5007834;28;20931;-75
2023/05/20 05:03:38;;;;;;;3.40;3.10;;;12.80;77.20;;;;;;5013227;28;20417;-75
2023/05/20 05:06:05;;;;;;;4.03;3.63;;;12.80;77.10;;;;;;5011720;28;20466;-73
2023/05/20 05:08:33;;;;;;;3.47;3.17;;;12.80;78.30;;;;;;5011491;28;20428;-75
2023/05/20 05:11:00;;;;;;;3.88;3.45;;;12.80;77.50;;;;;;5010829;28;20443;-74
2023/05/20 05:13:27;;;;;;;3.30;3.00;;;12.80;77.70;;;;;;5012072;28;20428;-74
2023/05/20 05:16:00;;;;;;;4.22;3.10;;;12.80;78.40;;;;;;5007961;28;20429;-74
2023/05/20 05:18:27;;;;;;;3.50;3.20;;;12.80;78.70;;;;;;5006002;28;20915;-74
2023/05/20 05:21:00;;;;;;;4.13;3.28;;;12.80;78.20;;;;;;5006586;28;20447;-74
2023/05/20 05:23:26;;;;;;;3.40;3.10;;;12.90;79.50;;;;;;5010870;28;20473;-74
2023/05/20 05:25:55;;;;;;;3.60;3.30;;;12.90;79.20;;;;;;5009546;28;20534;-74
2023/05/20 05:28:21;;;;;;;3.42;3.10;;;13.00;78.10;;;;;;5010963;28;20417;-74
2023/05/20 05:30:48;;;;;;;3.90;3.50;;;13.10;78.70;;;;;;5007479;28;20444;-74
2023/05/20 05:33:18;;;;;;;3.80;3.20;;;13.20;78.50;;;;;;5010354;28;20522;-74
2023/05/20 05:35:45;;;;;;;3.70;3.40;;;13.30;78.50;;;;;;5010368;28;20425;-76
2023/05/20 05:38:12;;;;;;;3.90;3.53;;;13.40;78.00;;;;;;5010575;28;20473;-74
2023/05/20 05:40:39;;;;;;;3.95;3.60;;;13.40;77.50;;;;;;5010046;28;20413;-74
2023/05/20 05:43:07;;;;;;;4.38;3.95;;;13.50;77.50;;;;;;5010703;28;20516;-73
2023/05/20 05:45:34;;;;;;;5.97;4.80;;;13.70;77.50;;;;;;5010156;28;20770;-74
2023/05/20 05:48:00;;;;;;;4.38;3.97;;;13.80;76.80;;;;;;5009599;28;20428;-74
2023/05/20 05:50:27;;;;;;;4.35;3.95;;;13.90;75.70;;;;;;5009924;28;20429;-74
2023/05/20 05:52:54;;;;;;;3.80;3.50;;;14.00;75.50;;;;;;5009209;28;20433;-74
2023/05/20 05:55:22;;;;;;;4.18;3.50;;;14.10;75.30;;;;;;5010784;28;20913;-74
2023/05/20 05:57:50;;;;;;;3.22;2.92;;;14.10;74.90;;;;;;5010583;28;20420;-74
2023/05/20 06:00:18;;;;;;;4.85;3.65;;;14.20;73.70;;;;;;5010126;28;20459;-74
2023/05/20 06:02:45;;;;;;;5.30;3.42;;;14.30;73.60;;;;;;5009571;28;20444;-74
2023/05/20 06:05:12;;;;;;;4.95;3.40;;;14.40;72.90;;;;;;5011319;28;20429;-74
2023/05/20 06:07:39;;;;;;;4.00;3.27;;;14.50;73.30;;;;;;5009901;28;20824;-73
2023/05/20 06:10:06;;;;;;;4.13;2.90;;;14.60;73.20;;;;;;5009605;28;20841;-73
2023/05/20 06:12:33;;;;;;;3.58;3.05;;;14.70;73.00;;;;;;5010030;28;20429;-74
2023/05/20 06:15:00;;;;;;;5.38;3.63;;;14.80;72.70;;;;;;5010279;28;20421;-73
2023/05/20 06:17:28;;;;;;;4.03;3.05;;;15.00;72.40;;;;;;5010341;28;20435;-74
2023/05/20 06:19:54;;;;;;;3.60;3.30;;;15.10;71.40;;;;;;5003838;28;20504;-74
2023/05/20 06:22:21;;;;;;;3.80;2.90;;;15.20;70.80;;;;;;5009962;28;20421;-74
2023/05/20 06:24:48;;;;;;;3.13;2.83;;;15.30;70.60;;;;;;5009851;28;20536;-74
2023/05/20 06:27:15;;;;;;;4.55;3.15;;;15.40;69.90;;;;;;5009245;28;20443;-73
2023/05/20 06:29:42;;;;;;;3.30;2.80;;;15.50;69.00;;;;;;5009358;28;20519;-74
2023/05/20 06:32:08;;;;;;;3.33;3.03;;;15.50;68.10;;;;;;5007578;28;20936;-74
2023/05/20 06:34:36;;;;;;;3.75;3.05;;;15.60;67.70;;;;;;5007499;28;20431;-74
2023/05/20 06:37:03;;;;;;;3.97;3.40;;;15.70;67.50;;;;;;5009485;28;20423;-75
2023/05/20 06:39:30;;;;;;;3.10;2.80;;;15.80;66.60;;;;;;5008198;28;20416;-74
2023/05/20 06:42:00;;;;;;;3.50;3.17;;;15.80;66.00;;;;;;5006577;28;20417;-74
2023/05/20 06:44:27;;;;;;;3.45;3.15;;;15.90;66.10;;;;;;5008209;28;20424;-73
2023/05/20 06:46:53;;;;;;;3.37;2.93;;;16.00;65.80;;;;;;5008614;28;20424;-76
2023/05/20 06:49:23;;;;;;;3.57;2.83;;;16.10;65.90;;;;;;5008423;28;20433;-75
2023/05/20 06:51:51;;;;;;;3.10;2.80;;;16.20;66.20;;;;;;5009617;28;20514;-74
2023/05/20 06:54:18;;;;;;;5.45;3.35;;;16.30;64.30;;;;;;5009163;28;20420;-74
2023/05/20 06:56:45;;;;;;;3.10;2.80;;;16.40;64.90;;;;;;5009379;28;20420;-74
2023/05/20 06:59:12;;;;;;;3.25;2.95;;;16.50;64.70;;;;;;5007747;28;20417;-74
2023/05/20 07:01:39;;;;;;;3.20;2.90;;;16.60;64.80;;;;;;5009176;28;20423;-73
2023/05/20 07:04:06;;;;;;;2.78;2.58;;;16.70;63.80;;;;;;5009026;28;20498;-76
2023/05/20 07:06:32;;;;;;;3.50;2.90;;;16.80;63.60;;;;;;5009207;28;20508;-75
2023/05/20 07:09:00;;;;;;;3.15;2.70;;;16.90;63.30;;;;;;5008713;28;20417;-74
2023/05/20 07:11:27;;;;;;;3.30;2.70;;;17.00;63.20;;;;;;5009023;28;20913;-73
2023/05/20 07:13:54;;;;;;;3.40;3.10;;;17.10;63.40;;;;;;5008151;28;20946;-75
2023/05/20 07:16:21;;;;;;;3.30;2.70;;;17.20;62.90;;;;;;5009538;28;20530;-74
2023/05/20 07:18:47;;;;;;;3.22;2.92;;;17.30;62.10;;;;;;5009290;28;20425;-74
2023/05/20 07:21:14;;;;;;;4.22;3.00;;;17.30;61.60;;;;;;5009387;28;20420;-74
2023/05/20 07:23:41;;;;;;;3.10;2.80;;;17.40;61.40;;;;;;5008779;28;20443;-74
2023/05/20 07:26:09;;;;;;;3.50;3.03;;;17.50;61.70;;;;;;5009010;28;20508;-74
2023/05/20 07:28:36;;;;;;;3.40;3.10;;;17.50;61.30;;;;;;5008527;28;20416;-74
2023/05/20 07:31:02;;;;;;;3.70;3.10;;;17.60;60.90;;;;;;5008071;28;20420;-74
2023/05/20 07:33:29;;;;;;;3.07;2.83;;;17.70;59.40;;;;;;5005579;28;20540;-75
2023/05/20 07:35:56;;;;;;;3.50;2.70;;;17.80;59.50;;;;;;5008351;28;20420;-74
2023/05/20 07:38:23;;;;;;;3.75;2.88;;;17.80;59.40;;;;;;5005942;28;20436;-74
2023/05/20 07:40:50;;;;;;;3.30;2.80;;;17.80;59.20;;;;;;5004590;28;20528;-75
2023/05/20 07:43:18;;;;;;;3.70;3.10;;;17.90;59.70;;;;;;5004300;28;20469;-74
2023/05/20 07:45:44;;;;;;;3.53;3.17;;;17.90;59.10;;;;;;5008608;28;20424;-74
2023/05/20 07:48:11;;;;;;;3.37;2.67;;;17.90;58.90;;;;;;5009335;28;20420;-74
2023/05/20 07:50:38;;;;;;;3.38;2.80;;;17.90;58.80;;;;;;5007957;28;20499;-74
2023/05/20 07:53:05;;;;;;;4.03;2.90;;;18.00;57.80;;;;;;5009227;28;20486;-75
2023/05/20 07:55:34;;;;;;;4.22;2.70;;;18.10;58.10;;;;;;5008796;28;20935;-73
2023/05/20 07:58:01;;;;;;;3.70;3.13;;;18.20;58.00;;;;;;5008621;28;20429;-73
2023/05/20 08:00:29;;;;;;;3.40;2.90;;;18.30;57.90;;;;;;5006150;28;20908;-74
2023/05/20 08:02:56;;;;;;;4.13;3.00;;;18.50;57.30;;;;;;5008354;28;20904;-73
2023/05/20 08:05:23;;;;;;;3.70;3.10;;;18.60;56.70;;;;;;5008373;28;20428;-74
2023/05/20 08:07:49;;;;;;;2.90;2.60;;;18.80;56.50;;;;;;5008438;28;20423;-73
2023/05/20 08:10:16;;;;;;;3.22;2.92;;;18.90;55.80;;;;;;5007719;28;20413;-73
2023/05/20 08:12:43;;;;;;;3.30;3.00;;;18.90;55.70;;;;;;5008101;28;20432;-72
2023/05/20 08:15:10;;;;;;;3.33;3.05;;;19.00;55.10;;;;;;5003828;28;20436;-73
2023/05/20 08:17:38;;;;;;;3.00;2.70;;;19.00;54.40;;;;;;5009072;28;20435;-74
2023/05/20 08:20:06;;;;;;;4.25;3.50;;;19.00;54.60;;;;;;5011226;28;20417;-74
2023/05/20 08:22:33;;;;;;;3.20;2.88;;;19.10;55.30;;;;;;5015792;28;20583;-74
2023/05/20 08:25:00;;;;;;;4.30;3.00;;;19.20;54.40;;;;;;5016652;28;20420;-73
2023/05/20 08:27:27;;;;;;;4.82;3.10;;;19.20;54.50;;;;;;5018966;28;20416;-74
2023/05/20 08:29:53;;;;;;;3.67;2.70;;;19.30;53.70;;;;;;5014061;28;20424;-73
2023/05/20 08:32:20;;;;;;;3.20;2.60;;;19.40;53.70;;;;;;5008346;28;20436;-73
2023/05/20 08:34:49;;;;;;;3.70;2.70;;;19.40;53.70;;;;;;5008107;28;20421;-74
2023/05/20 08:37:15;;;;;;;3.90;3.20;;;19.40;53.90;;;;;;5008523;28;20475;-73
2023/05/20 08:39:45;;;;;;;3.90;3.37;;;19.40;54.10;;;;;;5006996;28;20455;-73
2023/05/20 08:42:12;;;;;;;3.03;2.65;;;19.60;53.30;;;;;;5008143;28;20475;-74
2023/05/20 08:44:41;;;;;;;3.70;2.80;;;19.80;52.80;;;;;;5007857;28;20441;-73
2023/05/20 08:47:09;;;;;;;3.38;3.00;;;19.90;52.60;;;;;;5008159;28;20424;-73
2023/05/20 08:49:36;;;;;;;3.58;2.80;;;20.10;51.80;;;;;;5004641;28;20800;-74
2023/05/20 08:52:06;;;;;;;3.22;2.63;;;20.20;52.10;;;;;;5007735;28;20876;-73
2023/05/20 08:54:48;;;;;;;3.10;2.80;;;20.20;51.50;;;;;;5005228;28;20424;-73
2023/05/20 08:57:15;;;;;;;3.75;2.90;;;20.30;51.40;;;;;;5010745;28;20843;-75
2023/05/20 08:59:43;;;;;;;3.80;2.80;;;20.40;51.60;;;;;;5011015;28;20435;-75
2023/05/20 09:02:11;;;;;;;3.55;2.80;;;20.40;52.70;;;;;;5011501;28;20413;-74
2023/05/20 09:04:38;;;;;;;3.28;2.97;;;20.60;51.40;;;;;;5011071;28;20876;-75
2023/05/20 09:07:06;;;;;;;3.40;2.50;;;20.70;50.60;;;;;;5011378;28;20425;-74
2023/05/20 09:09:34;;;;;;;3.55;2.92;;;20.90;50.10;;;;;;5011084;28;20440;-74
2023/05/20 09:12:02;;;;;;;3.35;3.03;;;21.00;50.00;;;;;;5009166;28;20443;-73
2023/05/20 09:14:29;;;;;;;5.43;4.93;;;21.10;49.80;;;;;;5011413;28;20424;-75
2023/05/20 09:16:55;;;;;;;13.40;12.00;;;21.20;49.20;;;;;;5011389;28;20440;-75
2023/05/20 09:19:23;;;;;;;5.50;4.85;;;21.30;49.10;;;;;;5010742;28;20424;-75
2023/05/20 09:21:52;;;;;;;3.10;2.90;;;21.40;48.80;;;;;;5011045;28;20425;-73
2023/05/20 09:24:24;;;;;;;3.22;2.75;;;21.50;49.10;;;;;;5011131;28;20770;-73
2023/05/20 09:26:51;;;;;;;2.80;2.50;;;21.70;48.50;;;;;;5011389;28;20472;-75
2023/05/20 09:29:18;;;;;;;3.10;2.78;;;21.80;47.40;;;;;;5009987;28;20920;-74
2023/05/20 09:31:45;;;;;;;4.30;2.70;;;21.90;47.40;;;;;;5011666;28;21287;-75
2023/05/20 09:34:12;;;;;;;4.15;3.42;;;22.00;47.10;;;;;;5010849;28;20924;-75
2023/05/20 09:36:42;;;;;;;3.58;2.90;;;22.20;47.30;;;;;;5010398;28;20456;-75
2023/05/20 09:39:14;;;;;;;3.20;2.75;;;22.40;46.60;;;;;;5008710;28;20432;-75
2023/05/20 09:41:49;;;;;;;3.23;3.03;;;22.60;45.70;;;;;;5010630;28;20417;-75
2023/05/20 09:44:17;;;;;;;5.72;4.32;;;22.60;45.30;;;;;;5010565;28;20535;-75
2023/05/20 09:46:45;;;;;;;2.97;2.77;;;22.70;45.30;;;;;;5010379;28;20894;-75
2023/05/20 09:49:13;;;;;;;2.83;2.53;;;22.70;45.30;;;;;;5010041;28;20512;-74
2023/05/20 09:51:41;;;;;;;2.75;2.55;;;22.60;45.60;;;;;;5010334;28;20427;-75
2023/05/20 09:54:10;;;;;;;3.53;3.22;;;22.60;45.70;;;;;;5010208;28;20948;-75
2023/05/20 09:56:37;;;;;;;5.00;4.10;;;22.60;45.50;;;;;;5010310;28;20433;-73
2023/05/20 09:59:05;;;;;;;3.20;2.90;;;22.60;46.00;;;;;;5009582;28;21091;-75
2023/05/20 10:01:32;;;;;;;3.30;2.45;;;22.70;46.00;;;;;;5009644;28;20420;-75
2023/05/20 10:04:00;;;;;;;3.88;3.15;;;22.80;44.70;;;;;;5010222;28;20428;-75
2023/05/20 10:06:43;;;;;;;2.80;2.60;;;22.90;44.60;;;;;;5009744;28;20924;-75
2023/05/20 10:09:23;;;;;;;2.92;2.30;;;23.10;44.50;;;;;;5004064;28;20452;-73
2023/05/20 10:11:57;;;;;;;3.20;2.90;;;23.00;45.00;;;;;;5009992;28;20778;-74
2023/05/20 10:14:40;;;;;;;2.67;2.47;;;23.00;44.60;;;;;;5010604;28;20428;-74
2023/05/20 10:17:13;;;;;;;2.90;2.70;;;22.90;44.40;;;;;;5010079;28;20429;-74
2023/05/20 10:19:40;;;;;;;3.05;2.75;;;22.90;44.50;;;;;;5009283;28;20425;-74
2023/05/20 10:22:08;;;;;;;2.73;2.53;;;23.00;44.30;;;;;;5003903;28;20424;-73
2023/05/20 10:24:36;;;;;;;3.58;3.15;;;23.00;44.90;;;;;;5009861;28;20766;-74
2023/05/20 10:27:07;;;;;;;3.07;2.77;;;22.90;44.60;;;;;;5009886;28;20428;-73
2023/05/20 10:29:44;;;;;;;2.85;2.65;;;22.90;44.30;;;;;;5009348;28;20432;-73
2023/05/20 10:32:11;;;;;;;3.40;2.80;;;22.90;44.20;;;;;;5009446;28;20428;-73
2023/05/20 10:34:46;;;;;;;3.08;2.88;;;22.90;44.10;;;;;;5009232;28;20951;-73
2023/05/20 10:37:23;;;;;;;3.00;2.70;;;22.90;44.00;;;;;;5004438;28;20974;-73
2023/05/20 10:39:50;;;;;;;3.00;2.75;;;22.80;42.80;;;;;;5008190;28;20416;-73
2023/05/20 10:42:27;;;;;;;2.60;2.40;;;22.70;43.30;;;;;;5009550;28;20465;-74
2023/05/20 10:44:55;;;;;;;2.92;2.63;;;22.70;43.90;;;;;;5001373;28;20416;-74
2023/05/20 10:47:22;;;;;;;3.20;2.60;;;22.70;43.50;;;;;;5009418;28;20424;-74
2023/05/20 10:49:48;;;;;;;4.57;2.77;;;22.60;44.00;;;;;;5009111;28;20419;-75
2023/05/20 10:52:17;;;;;;;3.38;2.67;;;22.50;44.70;;;;;;5009307;28;20428;-75
2023/05/20 10:54:45;;;;;;;3.30;2.90;;;22.50;45.00;;;;;;5009404;28;20828;-75
2023/05/20 10:57:12;;;;;;;3.28;2.97;;;22.50;45.10;;;;;;5009392;28;20444;-73
2023/05/20 10:59:39;;;;;;;3.80;3.00;;;22.60;44.80;;;;;;5008736;28;20429;-73
2023/05/20 11:02:10;;;;;;;3.92;3.63;;;22.80;44.80;;;;;;5009302;28;20428;-74
2023/05/20 11:04:37;;;;;;;3.20;2.90;;;22.80;44.10;;;;;;5009533;28;20412;-74
2023/05/20 11:07:04;;;;;;;3.42;2.85;;;22.90;44.30;;;;;;5009252;28;20416;-75
2023/05/20 11:09:32;;;;;;;2.90;2.70;;;22.90;44.10;;;;;;5008431;28;20416;-75
2023/05/20 11:11:59;;;;;;;3.20;2.90;;;22.80;44.30;;;;;;5009060;28;20866;-75
2023/05/20 11:14:28;;;;;;;3.50;2.75;;;22.90;44.40;;;;;;5006190;28;20808;-75
2023/05/20 11:16:56;;;;;;;3.60;3.30;;;23.00;44.30;;;;;;5006830;28;20421;-75
2023/05/20 11:19:25;;;;;;;3.07;2.87;;;23.10;43.80;;;;;;5008222;28;20425;-75
2023/05/20 11:21:52;;;;;;;3.70;3.00;;;23.20;43.50;;;;;;5008663;28;20424;-75
2023/05/20 11:24:26;;;;;;;3.08;2.80;;;23.30;43.70;;;;;;5008223;28;20432;-75
2023/05/20 11:26:53;;;;;;;3.08;2.78;;;23.50;43.70;;;;;;5008690;28;20832;-75
2023/05/20 11:29:20;;;;;;;3.45;2.95;;;23.60;43.40;;;;;;5008733;28;20428;-75
2023/05/20 11:31:49;;;;;;;3.53;3.00;;;23.80;42.00;;;;;;5008168;28;20421;-75
2023/05/20 11:34:16;;;;;;;3.40;3.10;;;23.80;42.80;;;;;;5008774;28;20979;-75
2023/05/20 11:36:44;;;;;;;3.50;3.00;;;23.80;42.70;;;;;;5007159;28;20427;-75
2023/05/20 11:39:13;;;;;;;3.33;3.03;;;23.90;42.70;;;;;;5007655;28;20428;-75
2023/05/20 11:41:42;;;;;;;3.60;3.30;;;24.10;42.10;;;;;;5008753;28;20844;-75
2023/05/20 11:44:11;;;;;;;3.90;3.35;;;24.20;42.20;;;;;;5008797;28;20801;-72
2023/05/20 11:46:42;;;;;;;4.30;3.50;;;24.20;41.90;;;;;;5008955;28;20429;-76
2023/05/20 11:49:09;;;;;;;3.40;3.10;;;24.20;42.50;;;;;;5008601;28;20423;-74
2023/05/20 11:51:37;;;;;;;3.85;3.17;;;24.20;42.20;;;;;;5008914;28;20900;-74
2023/05/20 11:54:07;;;;;;;3.70;3.40;;;24.10;42.20;;;;;;5008726;28;20932;-74
2023/05/20 11:56:35;;;;;;;3.13;2.92;;;24.00;42.60;;;;;;5009067;28;20448;-73
2023/05/20 11:59:02;;;;;;;3.20;2.90;;;23.90;42.30;;;;;;5005540;28;20428;-74
2023/05/20 12:01:32;;;;;;;3.10;2.80;;;23.80;41.90;;;;;;5008488;28;21082;-74
2023/05/20 12:03:59;;;;;;;3.50;3.20;;;23.90;43.00;;;;;;5008355;28;20516;-76
2023/05/20 12:06:26;;;;;;;3.13;2.83;;;23.90;43.20;;;;;;5008309;28;20520;-75
2023/05/20 12:08:52;;;;;;;3.90;3.50;;;23.80;43.20;;;;;;5006039;28;20431;-74
2023/05/20 12:11:21;;;;;;;3.88;3.58;;;23.80;43.60;;;;;;5007251;28;20443;-74
2023/05/20 12:13:48;;;;;;;3.75;3.45;;;23.80;43.40;;;;;;5008333;28;20507;-76
2023/05/20 12:16:15;;;;;;;3.70;3.40;;;23.90;43.30;;;;;;5008401;28;20416;-74
2023/05/20 12:18:42;;;;;;;3.78;3.47;;;23.90;43.20;;;;;;5008163;28;20548;-74
2023/05/20 12:21:09;;;;;;;3.70;3.40;;;23.70;43.40;;;;;;5001224;28;20425;-76
2023/05/20 12:23:36;;;;;;;4.78;4.38;;;23.40;45.20;;;;;;5008020;28;20478;-76
2023/05/20 12:26:03;;;;;;;4.20;3.80;;;23.20;45.00;;;;;;5008460;28;20848;-75
2023/05/20 12:28:32;;;;;;;4.50;4.10;;;23.10;45.20;;;;;;5007456;28;20440;-76
2023/05/20 12:30:58;;;;;;;3.78;3.47;;;23.00;45.60;;;;;;5008772;28;20436;-75
2023/05/20 12:33:26;;;;;;;3.80;3.50;;;23.00;45.70;;;;;;5008614;28;20978;-74
2023/05/20 12:35:53;;;;;;;4.50;4.10;;;23.20;45.90;;;;;;5011923;28;20891;-75
2023/05/20 12:38:20;;;;;;;5.57;5.18;;;23.30;45.10;;;;;;5011961;28;20952;-75
2023/05/20 12:40:46;;;;;;;4.18;3.70;;;23.30;45.30;;;;;;5004166;28;20428;-75
2023/05/20 12:43:13;;;;;;;4.88;3.50;;;23.50;45.30;;;;;;5011936;28;20927;-75
2023/05/20 12:45:41;;;;;;;3.63;3.33;;;23.60;45.30;;;;;;5012619;28;20428;-77
2023/05/20 12:48:08;;;;;;;3.40;3.10;;;23.50;44.20;;;;;;5011406;28;20421;-74
2023/05/20 12:50:35;;;;;;;3.65;3.35;;;23.30;43.90;;;;;;5011134;28;20428;-75
2023/05/20 12:53:01;;;;;;;3.90;3.50;;;23.20;44.30;;;;;;5025835;23;20544;-75